83NY weather

Norcross Helipad Heliport
Rochester, New York, United States

Public forecast

Using degrees Fahrenheit for public forecast. Weather courtesy of forecast.io.

METAR (pilot weather report)

Closest report is Greater Rochester International Airport, 1.0 nm (1.9 km) WSW. Retrieved 2019/05/21 09:54 UTC (10 minutes ago):

KROC 210954Z 28009KT 10SM FEW070 07/03 A3004 RMK AO2 SLP177 T00720033

TAF (pilot weather forecast)

Closest forecast is Greater Rochester International Airport, 1.0 nm (1.9 km) WSW. Retrieved 2019/05/21 06:34 UTC (3 hours ago):

TAF KROC 210532Z 2106/2206 29010G22KT P6SM BKN025 FM210700 29009KT P6SM BKN050 FM210800 28009KT P6SM FEW250 FM211100 29010G16KT P6SM FEW250 FM212300 29008KT P6SM SKC